Terminal Aerodrome Forecast
Issued by NWS

Current Version | Previous Version | Text Only | Print | Product List | Glossary On
Versions: 1 2 3 4 5 6 7 8 9 10 11 12 13 14 15 16 17 18 19
000
FTUS44 KBMX 300520
TAFANB
TAF
KANB 300520Z 3006/3106 06003KT 5SM BR SCT250
      TEMPO 3010/3013 4SM BR
     FM301300 10003KT P6SM FEW250
     FM301800 17007KT P6SM SCT050=

USA.gov is the U.S. government's official web portal to all federal, state and local government web resources and services.